createdAt,value
2017-08-20T00:00:16.477Z,14.0
2017-08-20T00:01:17.869Z,14.0
2017-08-20T00:02:19.264Z,13.9
2017-08-20T00:03:20.661Z,14.0
2017-08-20T00:04:22.056Z,14.0
2017-08-20T00:05:23.455Z,14.0
2017-08-20T00:06:24.850Z,13.9
2017-08-20T00:07:26.254Z,13.9
2017-08-20T00:08:27.638Z,13.9
2017-08-20T00:09:29.031Z,13.9
2017-08-20T00:10:30.426Z,13.9
2017-08-20T00:11:31.823Z,13.9
2017-08-20T00:12:33.222Z,13.9
2017-08-20T00:13:34.616Z,14.0
2017-08-20T00:14:36.013Z,13.9
2017-08-20T00:15:37.407Z,13.9
2017-08-20T00:16:38.808Z,13.9
2017-08-20T00:17:40.198Z,13.9
2017-08-20T00:18:41.596Z,13.9
2017-08-20T00:19:42.992Z,13.8
2017-08-20T00:20:44.389Z,13.9
2017-08-20T00:21:45.784Z,13.9
2017-08-20T00:22:47.181Z,13.8
2017-08-20T00:23:48.576Z,13.8
2017-08-20T00:24:49.971Z,13.8
2017-08-20T00:25:51.369Z,13.8
2017-08-20T00:26:52.763Z,13.8
2017-08-20T00:27:54.158Z,13.7
2017-08-20T00:28:55.554Z,13.9
2017-08-20T00:29:56.950Z,13.9
2017-08-20T00:30:58.342Z,13.8
2017-08-20T00:31:59.737Z,13.8
2017-08-20T00:33:01.134Z,13.8
2017-08-20T00:34:02.531Z,13.8
2017-08-20T00:35:03.966Z,13.7
2017-08-20T00:36:05.362Z,13.8
2017-08-20T00:37:06.759Z,13.8
2017-08-20T00:38:08.153Z,13.8
2017-08-20T00:39:09.547Z,13.8
2017-08-20T00:40:10.943Z,13.8
2017-08-20T00:41:12.339Z,13.8
2017-08-20T00:42:13.735Z,13.8
2017-08-20T00:43:15.133Z,13.7
2017-08-20T00:44:16.526Z,13.8
2017-08-20T00:45:17.917Z,13.7
2017-08-20T00:46:19.313Z,13.8
2017-08-20T00:47:20.712Z,13.8
2017-08-20T00:48:22.106Z,13.7
2017-08-20T00:49:23.502Z,13.8
2017-08-20T00:50:24.899Z,13.8
2017-08-20T00:51:26.292Z,13.8
2017-08-20T00:52:27.686Z,13.8
2017-08-20T00:53:29.083Z,13.7
2017-08-20T00:54:30.477Z,13.7
2017-08-20T00:55:31.869Z,13.7
2017-08-20T00:56:33.267Z,13.7
2017-08-20T00:57:34.662Z,13.6
2017-08-20T00:58:36.056Z,13.6
2017-08-20T00:59:37.448Z,13.5
2017-08-20T01:00:38.841Z,13.6
2017-08-20T01:01:40.237Z,13.6
2017-08-20T01:02:41.632Z,13.6
2017-08-20T01:03:43.030Z,13.6
2017-08-20T01:04:44.427Z,13.6
2017-08-20T01:05:45.819Z,13.6
2017-08-20T01:06:47.213Z,13.6
2017-08-20T01:07:48.607Z,13.6
2017-08-20T01:08:50.003Z,13.6
2017-08-20T01:09:51.397Z,13.6
2017-08-20T01:10:52.796Z,13.6
2017-08-20T01:11:54.193Z,13.7
2017-08-20T01:12:55.586Z,13.7
2017-08-20T01:13:56.980Z,13.8
2017-08-20T01:14:58.382Z,13.7
2017-08-20T01:15:59.769Z,13.6
2017-08-20T01:17:01.166Z,13.7
2017-08-20T01:18:02.565Z,13.6
2017-08-20T01:19:03.962Z,13.6
2017-08-20T01:20:05.354Z,13.7
2017-08-20T01:21:06.744Z,13.6
2017-08-20T01:22:08.139Z,13.6
2017-08-20T01:23:09.535Z,13.7
2017-08-20T01:24:10.929Z,13.5
2017-08-20T01:25:12.329Z,13.7
2017-08-20T01:26:13.723Z,13.7
2017-08-20T01:27:15.119Z,13.6
2017-08-20T01:28:16.512Z,13.7
2017-08-20T01:29:17.909Z,13.7
2017-08-20T01:30:19.258Z,13.6
2017-08-20T01:31:20.654Z,13.7
2017-08-20T01:32:22.054Z,13.7
2017-08-20T01:33:23.444Z,13.7
2017-08-20T01:34:24.841Z,13.7
2017-08-20T01:35:26.235Z,13.7
2017-08-20T01:36:27.633Z,13.7
2017-08-20T01:37:29.027Z,13.7
2017-08-20T01:38:30.424Z,13.7
2017-08-20T01:39:31.828Z,13.7
2017-08-20T01:40:33.219Z,13.8
2017-08-20T01:41:34.614Z,13.8
2017-08-20T01:42:36.008Z,13.7
2017-08-20T01:43:37.401Z,13.8
2017-08-20T01:44:38.800Z,13.7
2017-08-20T01:45:40.192Z,13.8
2017-08-20T01:46:41.589Z,13.8
2017-08-20T01:47:42.987Z,13.7
2017-08-20T01:48:44.379Z,13.8
2017-08-20T01:49:45.775Z,13.8
2017-08-20T01:50:47.173Z,13.7
2017-08-20T01:51:48.568Z,13.8
2017-08-20T01:52:49.960Z,13.7
2017-08-20T01:53:51.358Z,13.8
2017-08-20T01:54:52.757Z,13.8
2017-08-20T01:55:54.153Z,13.8
2017-08-20T01:56:55.555Z,13.8
2017-08-20T01:57:56.941Z,13.8
2017-08-20T01:58:58.336Z,13.8
2017-08-20T01:59:59.731Z,13.8
2017-08-20T02:01:01.127Z,13.8
2017-08-20T02:02:02.526Z,13.8
2017-08-20T02:03:03.919Z,13.8
2017-08-20T02:04:05.314Z,13.9
2017-08-20T02:05:06.709Z,13.9
2017-08-20T02:06:08.103Z,13.9
2017-08-20T02:07:09.510Z,13.9
2017-08-20T02:08:10.907Z,13.9
2017-08-20T02:09:12.303Z,13.8
2017-08-20T02:10:13.734Z,13.9
2017-08-20T02:11:15.127Z,13.9
2017-08-20T02:12:16.519Z,13.8
2017-08-20T02:13:17.915Z,13.8
2017-08-20T02:14:19.311Z,13.8
2017-08-20T02:15:20.708Z,13.8
2017-08-20T02:16:22.107Z,13.8
2017-08-20T02:17:23.499Z,13.8
2017-08-20T02:18:24.892Z,13.8
2017-08-20T02:19:26.285Z,13.8
2017-08-20T02:20:27.679Z,13.9
2017-08-20T02:21:29.078Z,13.9
2017-08-20T02:22:30.472Z,13.8
2017-08-20T02:23:31.871Z,13.8
2017-08-20T02:24:33.264Z,13.8
2017-08-20T02:25:34.658Z,13.8
2017-08-20T02:26:36.055Z,13.9
2017-08-20T02:27:37.449Z,13.8
2017-08-20T02:28:38.846Z,13.9
2017-08-20T02:29:40.242Z,13.9
2017-08-20T02:30:41.636Z,13.9
2017-08-20T02:31:43.030Z,13.9
2017-08-20T02:32:44.423Z,13.9
2017-08-20T02:33:45.819Z,14.0
2017-08-20T02:34:47.211Z,14.0
2017-08-20T02:35:48.611Z,14.0
2017-08-20T02:36:50.003Z,14.0
2017-08-20T02:37:51.403Z,14.0
2017-08-20T02:38:52.794Z,14.0
2017-08-20T02:39:54.188Z,13.9
2017-08-20T02:40:55.585Z,13.9
2017-08-20T02:41:56.974Z,14.0
2017-08-20T02:42:58.374Z,14.0
2017-08-20T02:43:59.768Z,14.1
2017-08-20T02:45:01.166Z,14.1
2017-08-20T02:46:02.559Z,14.1
2017-08-20T02:47:03.951Z,14.0
2017-08-20T02:48:05.351Z,14.0
2017-08-20T02:49:06.742Z,14.0
2017-08-20T02:50:08.142Z,14.1
2017-08-20T02:51:09.539Z,14.1
2017-08-20T02:52:10.934Z,14.1
2017-08-20T02:53:12.331Z,14.0
2017-08-20T02:54:13.725Z,14.1
2017-08-20T02:55:15.119Z,14.0
2017-08-20T02:56:16.513Z,14.1
2017-08-20T02:57:17.910Z,14.1
2017-08-20T02:58:19.302Z,14.1
2017-08-20T02:59:20.700Z,14.1
2017-08-20T03:00:22.095Z,14.1
2017-08-20T03:01:23.497Z,14.2
2017-08-20T03:02:24.880Z,14.1
2017-08-20T03:03:26.272Z,14.1
2017-08-20T03:04:27.669Z,14.2
2017-08-20T03:05:29.064Z,14.2
2017-08-20T03:06:30.463Z,14.1
2017-08-20T03:07:31.855Z,14.1
2017-08-20T03:08:33.250Z,14.2
2017-08-20T03:09:34.648Z,14.1
2017-08-20T03:10:36.042Z,14.2
2017-08-20T03:11:37.449Z,14.2
2017-08-20T03:12:38.841Z,14.2
2017-08-20T03:13:40.237Z,14.1
2017-08-20T03:14:41.631Z,14.2
2017-08-20T03:15:43.025Z,14.2
2017-08-20T03:16:44.417Z,14.2
2017-08-20T03:17:45.815Z,14.2
2017-08-20T03:18:47.210Z,14.2
2017-08-20T03:19:48.607Z,14.1
2017-08-20T03:20:50.002Z,14.2
2017-08-20T03:21:51.396Z,14.2
2017-08-20T03:22:52.793Z,14.2
2017-08-20T03:23:54.186Z,14.2
2017-08-20T03:24:55.583Z,14.2
2017-08-20T03:25:56.978Z,14.2
2017-08-20T03:26:58.376Z,14.2
2017-08-20T03:27:59.774Z,14.2
2017-08-20T03:29:01.166Z,14.2
2017-08-20T03:30:02.562Z,14.2
2017-08-20T03:31:03.953Z,14.2
2017-08-20T03:32:05.348Z,14.2
2017-08-20T03:33:06.744Z,14.2
2017-08-20T03:34:08.140Z,14.2
2017-08-20T03:35:09.540Z,14.2
2017-08-20T03:36:10.932Z,14.0
2017-08-20T03:37:12.323Z,14.2
2017-08-20T03:38:13.721Z,14.2
2017-08-20T03:39:15.118Z,14.2
2017-08-20T03:40:16.514Z,14.2
2017-08-20T03:41:17.912Z,14.1
2017-08-20T03:42:19.307Z,14.1
2017-08-20T03:43:20.700Z,14.1
2017-08-20T03:44:22.095Z,14.1
2017-08-20T03:45:23.536Z,14.0
2017-08-20T03:46:24.931Z,14.1
2017-08-20T03:47:26.327Z,14.1
2017-08-20T03:48:27.725Z,14.0
2017-08-20T03:49:29.123Z,14.1
2017-08-20T03:50:30.514Z,14.0
2017-08-20T03:51:31.908Z,14.0
2017-08-20T03:52:33.302Z,13.9
2017-08-20T03:53:34.697Z,14.1
2017-08-20T03:54:36.091Z,14.0
2017-08-20T03:55:37.488Z,13.9
2017-08-20T03:56:38.885Z,13.9
2017-08-20T03:57:40.286Z,13.9
2017-08-20T03:58:41.679Z,13.8
2017-08-20T03:59:43.077Z,14.0
2017-08-20T04:00:44.472Z,13.8
2017-08-20T04:01:45.870Z,13.9
2017-08-20T04:02:47.264Z,13.8
2017-08-20T04:03:48.661Z,13.8
2017-08-20T04:04:50.053Z,13.8
2017-08-20T04:05:51.446Z,13.8
2017-08-20T04:06:52.847Z,13.8
2017-08-20T04:07:54.241Z,13.8
2017-08-20T04:08:55.635Z,13.7
2017-08-20T04:09:57.031Z,13.7
2017-08-20T04:10:58.428Z,13.7
2017-08-20T04:11:59.822Z,13.7
2017-08-20T04:13:01.216Z,13.7
2017-08-20T04:14:02.612Z,13.7
2017-08-20T04:15:04.009Z,13.7
2017-08-20T04:16:05.405Z,13.7
2017-08-20T04:17:06.805Z,13.7
2017-08-20T04:18:08.203Z,13.6
2017-08-20T04:19:09.599Z,13.6
2017-08-20T04:20:10.992Z,13.6
2017-08-20T04:21:12.390Z,13.6
2017-08-20T04:22:13.786Z,13.6
2017-08-20T04:23:15.186Z,13.6
2017-08-20T04:24:16.584Z,13.6
2017-08-20T04:25:17.981Z,13.6
2017-08-20T04:26:19.375Z,13.6
2017-08-20T04:27:20.770Z,13.5
2017-08-20T04:28:22.167Z,13.6
2017-08-20T04:29:23.562Z,13.5
2017-08-20T04:30:24.958Z,13.6
2017-08-20T04:31:26.356Z,13.6
2017-08-20T04:32:27.753Z,13.6
2017-08-20T04:33:29.148Z,13.6
2017-08-20T04:34:30.539Z,13.6
2017-08-20T04:35:31.938Z,13.5
2017-08-20T04:36:33.332Z,13.6
2017-08-20T04:37:34.730Z,13.6
2017-08-20T04:38:36.128Z,13.6
2017-08-20T04:39:37.527Z,13.6
2017-08-20T04:40:38.925Z,13.6
2017-08-20T04:41:40.319Z,13.6
2017-08-20T04:42:41.714Z,13.6
2017-08-20T04:43:43.119Z,13.6
2017-08-20T04:44:44.514Z,13.6
2017-08-20T04:45:45.912Z,13.6
2017-08-20T04:46:47.311Z,13.7
2017-08-20T04:47:48.704Z,13.6
2017-08-20T04:48:50.101Z,13.7
2017-08-20T04:49:51.495Z,13.7
2017-08-20T04:50:52.893Z,13.7
2017-08-20T04:51:54.293Z,13.6
2017-08-20T04:52:55.691Z,13.7
2017-08-20T04:53:57.089Z,13.7
2017-08-20T04:54:58.485Z,13.7
2017-08-20T04:55:59.902Z,13.7
2017-08-20T04:57:01.295Z,13.5
2017-08-20T04:58:02.693Z,13.6
2017-08-20T04:59:04.094Z,13.6
2017-08-20T05:00:05.496Z,13.6
2017-08-20T05:01:06.891Z,13.6
2017-08-20T05:02:08.288Z,13.7
2017-08-20T05:03:09.687Z,13.7
2017-08-20T05:04:11.084Z,13.6
2017-08-20T05:05:12.506Z,13.7
2017-08-20T05:06:13.884Z,13.7
2017-08-20T05:07:15.290Z,13.7
2017-08-20T05:08:16.689Z,13.7
2017-08-20T05:09:18.089Z,13.7
2017-08-20T05:10:19.483Z,13.7
2017-08-20T05:11:20.883Z,13.7
2017-08-20T05:12:22.283Z,13.7
2017-08-20T05:13:23.678Z,13.8
2017-08-20T05:14:25.080Z,13.9
2017-08-20T05:15:26.481Z,13.8
2017-08-20T05:16:27.880Z,13.8
2017-08-20T05:17:29.276Z,13.8
2017-08-20T05:18:30.672Z,13.8
2017-08-20T05:19:32.071Z,13.9
2017-08-20T05:20:33.471Z,13.9
2017-08-20T05:21:34.869Z,13.9
2017-08-20T05:22:36.278Z,13.9
2017-08-20T05:23:37.664Z,13.9
2017-08-20T05:24:39.062Z,13.9
2017-08-20T05:25:40.460Z,14.0
2017-08-20T05:26:41.858Z,14.0
2017-08-20T05:27:43.260Z,14.0
2017-08-20T05:28:44.663Z,13.9
2017-08-20T05:29:46.066Z,14.0
2017-08-20T05:30:47.465Z,14.0
2017-08-20T05:31:48.862Z,14.0
2017-08-20T05:32:50.262Z,14.1
2017-08-20T05:33:51.657Z,14.1
2017-08-20T05:34:53.057Z,14.0
2017-08-20T05:35:54.460Z,14.0
2017-08-20T05:36:55.856Z,14.1
2017-08-20T05:37:57.253Z,14.0
2017-08-20T05:38:58.649Z,14.1
2017-08-20T05:40:00.049Z,14.0
2017-08-20T05:41:01.447Z,14.0
2017-08-20T05:42:02.846Z,14.0
2017-08-20T05:43:04.247Z,14.0
2017-08-20T05:44:05.646Z,14.0
2017-08-20T05:45:07.043Z,14.0
2017-08-20T05:46:08.439Z,14.0
2017-08-20T05:47:09.839Z,14.0
2017-08-20T05:48:11.234Z,14.0
2017-08-20T05:49:12.634Z,14.0
2017-08-20T05:50:14.032Z,14.0
2017-08-20T05:51:15.435Z,14.0
2017-08-20T05:52:16.832Z,14.0
2017-08-20T05:53:18.231Z,14.0
2017-08-20T05:54:19.629Z,14.1
2017-08-20T05:55:21.032Z,14.2
2017-08-20T05:56:22.430Z,14.2
2017-08-20T05:57:23.830Z,14.2
2017-08-20T05:58:25.232Z,14.1
2017-08-20T05:59:26.627Z,14.2
2017-08-20T06:00:28.026Z,14.2
2017-08-20T06:01:29.424Z,14.1
2017-08-20T06:02:30.822Z,14.2
2017-08-20T06:03:32.222Z,14.2
2017-08-20T06:04:33.625Z,14.2
2017-08-20T06:05:35.027Z,14.3
2017-08-20T06:06:36.427Z,14.3
2017-08-20T06:07:37.823Z,14.4
2017-08-20T06:08:39.224Z,14.4
2017-08-20T06:09:40.625Z,14.4
2017-08-20T06:10:42.024Z,14.5
2017-08-20T06:11:43.426Z,14.5
2017-08-20T06:12:44.825Z,14.5
2017-08-20T06:13:46.224Z,14.6
2017-08-20T06:14:47.622Z,14.6
2017-08-20T06:15:49.023Z,14.7
2017-08-20T06:16:50.423Z,14.7
2017-08-20T06:17:51.826Z,14.7
2017-08-20T06:18:53.229Z,14.7
2017-08-20T06:19:54.628Z,14.7
2017-08-20T06:20:56.026Z,14.7
2017-08-20T06:21:57.423Z,14.8
2017-08-20T06:22:58.824Z,14.8
2017-08-20T06:24:00.221Z,14.8
2017-08-20T06:25:01.625Z,14.9
2017-08-20T06:26:03.023Z,14.9
2017-08-20T06:27:04.425Z,14.9
2017-08-20T06:28:05.825Z,14.9
2017-08-20T06:29:07.224Z,14.9
2017-08-20T06:30:08.621Z,15.0
2017-08-20T06:31:10.021Z,15.0
2017-08-20T06:32:11.422Z,15.0
2017-08-20T06:33:12.825Z,15.0
2017-08-20T06:34:14.223Z,15.0
2017-08-20T06:35:15.623Z,15.1
2017-08-20T06:36:17.020Z,14.9
2017-08-20T06:37:18.420Z,14.9
2017-08-20T06:38:19.820Z,14.9
2017-08-20T06:39:21.221Z,15.0
2017-08-20T06:40:22.621Z,15.1
2017-08-20T06:41:24.024Z,15.1
2017-08-20T06:42:25.421Z,15.0
2017-08-20T06:43:26.822Z,15.0
2017-08-20T06:44:28.220Z,15.0
2017-08-20T06:45:29.621Z,15.0
2017-08-20T06:46:31.024Z,15.0
2017-08-20T06:47:32.423Z,15.0
2017-08-20T06:48:33.828Z,14.9
2017-08-20T06:49:35.227Z,15.0
2017-08-20T06:50:36.625Z,15.0
2017-08-20T06:51:38.027Z,15.1
2017-08-20T06:52:39.429Z,15.1
2017-08-20T06:53:40.868Z,15.1
2017-08-20T06:54:44.659Z,15.1
2017-08-20T06:55:46.062Z,15.2
2017-08-20T06:56:47.461Z,15.2
2017-08-20T06:57:49.009Z,15.2
2017-08-20T06:58:50.409Z,15.4
2017-08-20T06:59:51.809Z,15.3
2017-08-20T07:00:53.214Z,15.3
2017-08-20T07:01:54.616Z,15.3
2017-08-20T07:02:56.015Z,15.3
2017-08-20T07:03:57.545Z,15.3
2017-08-20T07:04:59.127Z,15.3
2017-08-20T07:06:00.527Z,15.3
2017-08-20T07:07:01.932Z,15.4
2017-08-20T07:08:04.589Z,15.3
2017-08-20T07:09:07.596Z,15.4
2017-08-20T07:10:08.997Z,15.4
2017-08-20T07:11:10.398Z,15.4
2017-08-20T07:12:11.799Z,15.4
2017-08-20T07:13:13.201Z,15.4
2017-08-20T07:14:14.601Z,15.5
2017-08-20T07:15:16.142Z,15.7
2017-08-20T07:16:18.158Z,15.6
2017-08-20T07:17:19.727Z,15.7
2017-08-20T07:18:21.128Z,15.7
2017-08-20T07:19:22.530Z,15.7
2017-08-20T07:20:23.930Z,15.8
2017-08-20T07:21:25.466Z,15.9
2017-08-20T07:22:28.047Z,15.8
2017-08-20T07:23:30.020Z,15.8
2017-08-20T07:24:30.823Z,15.8
2017-08-20T07:25:32.391Z,16.0
2017-08-20T07:26:33.794Z,15.9
2017-08-20T07:27:35.311Z,16.0
2017-08-20T07:28:36.749Z,16.0
2017-08-20T07:29:38.886Z,16.0
2017-08-20T07:30:40.290Z,16.1
2017-08-20T07:31:41.714Z,16.0
2017-08-20T07:32:43.115Z,16.1
2017-08-20T07:33:44.513Z,16.2
2017-08-20T07:34:45.914Z,16.2
2017-08-20T07:35:47.315Z,16.2
2017-08-20T07:36:48.717Z,16.2
2017-08-20T07:37:50.210Z,16.2
2017-08-20T07:38:51.616Z,16.2
2017-08-20T07:39:53.019Z,16.2
2017-08-20T07:40:54.417Z,16.3
2017-08-20T07:41:55.834Z,16.2
2017-08-20T07:42:57.234Z,16.2
2017-08-20T07:43:58.636Z,16.2
2017-08-20T07:45:00.288Z,16.3
2017-08-20T07:46:01.854Z,16.3
2017-08-20T07:47:03.254Z,16.3
2017-08-20T07:48:04.657Z,16.4
2017-08-20T07:49:06.057Z,16.4
2017-08-20T07:50:07.463Z,16.5
2017-08-20T07:51:08.865Z,16.6
2017-08-20T07:52:10.266Z,16.6
2017-08-20T07:53:11.669Z,16.6
2017-08-20T07:54:13.070Z,16.6
2017-08-20T07:55:14.466Z,16.6
2017-08-20T07:56:15.872Z,16.6
2017-08-20T07:57:17.273Z,16.6
2017-08-20T07:58:18.676Z,16.6
2017-08-20T07:59:20.182Z,16.7
2017-08-20T08:00:21.688Z,16.8
2017-08-20T08:01:23.284Z,16.8
2017-08-20T08:02:24.695Z,16.8
2017-08-20T08:03:26.182Z,16.8
2017-08-20T08:04:27.582Z,16.9
2017-08-20T08:05:29.110Z,16.9
2017-08-20T08:06:30.514Z,17.0
2017-08-20T08:07:31.919Z,17.1
2017-08-20T08:08:33.411Z,17.0
2017-08-20T08:09:34.812Z,17.0
2017-08-20T08:10:36.213Z,17.2
2017-08-20T08:11:37.618Z,17.1
2017-08-20T08:12:39.065Z,17.2
2017-08-20T08:13:40.469Z,17.2
2017-08-20T08:14:41.874Z,17.3
2017-08-20T08:15:43.446Z,17.3
2017-08-20T08:16:44.846Z,17.3
2017-08-20T08:17:46.278Z,17.5
2017-08-20T08:18:47.683Z,17.5
2017-08-20T08:19:49.089Z,17.6
2017-08-20T08:20:50.616Z,17.6
2017-08-20T08:21:52.135Z,17.5
2017-08-20T08:22:54.552Z,17.7
2017-08-20T08:23:55.951Z,17.7
2017-08-20T08:24:57.353Z,17.7
2017-08-20T08:25:58.759Z,17.8
2017-08-20T08:27:00.160Z,17.9
2017-08-20T08:28:01.564Z,17.8
2017-08-20T08:29:02.977Z,17.9
2017-08-20T08:30:04.440Z,17.9
2017-08-20T08:31:05.842Z,17.9
2017-08-20T08:32:07.957Z,17.9
2017-08-20T08:33:09.403Z,18.0
2017-08-20T08:34:10.803Z,18.1
2017-08-20T08:35:12.225Z,18.3
2017-08-20T08:36:13.647Z,18.4
2017-08-20T08:37:15.053Z,18.4
2017-08-20T08:38:16.457Z,18.5
2017-08-20T08:39:17.851Z,18.5
2017-08-20T08:40:19.253Z,18.6
2017-08-20T08:41:20.657Z,18.6
2017-08-20T08:42:22.061Z,18.5
2017-08-20T08:43:23.464Z,18.5
2017-08-20T08:44:24.869Z,18.7
2017-08-20T08:45:26.271Z,18.8
2017-08-20T08:46:27.675Z,18.8
2017-08-20T08:47:29.079Z,18.9
2017-08-20T08:48:30.485Z,19.0
2017-08-20T08:49:31.895Z,19.0
2017-08-20T08:50:33.293Z,19.1
2017-08-20T08:51:34.697Z,19.1
2017-08-20T08:52:36.100Z,19.0
2017-08-20T08:53:37.500Z,19.0
2017-08-20T08:54:38.904Z,19.0
2017-08-20T08:55:40.309Z,19.0
2017-08-20T08:56:43.542Z,19.0
2017-08-20T08:57:44.027Z,18.9
2017-08-20T08:58:45.452Z,18.7
2017-08-20T08:59:46.831Z,18.6
2017-08-20T09:00:48.236Z,18.6
2017-08-20T09:01:49.645Z,18.8
2017-08-20T09:02:51.045Z,18.8
2017-08-20T09:03:54.964Z,18.7
2017-08-20T09:04:56.373Z,18.7
2017-08-20T09:05:57.774Z,18.7
2017-08-20T09:06:59.177Z,18.7
2017-08-20T09:08:00.579Z,18.7
2017-08-20T09:09:01.983Z,18.7
2017-08-20T09:10:03.386Z,18.7
2017-08-20T09:11:06.603Z,18.8
2017-08-20T09:12:08.036Z,19.0
2017-08-20T09:13:09.436Z,18.9
2017-08-20T09:14:10.840Z,18.9
2017-08-20T09:15:12.249Z,19.0
2017-08-20T09:16:13.643Z,19.1
2017-08-20T09:17:15.048Z,18.9
2017-08-20T09:18:21.734Z,19.1
2017-08-20T09:19:23.202Z,19.1
2017-08-20T09:20:24.603Z,19.0
2017-08-20T09:21:26.011Z,18.9
2017-08-20T09:22:27.411Z,18.9
2017-08-20T09:23:28.816Z,18.7
2017-08-20T09:24:30.228Z,18.7
2017-08-20T09:25:34.130Z,18.9
2017-08-20T09:26:35.646Z,18.9
2017-08-20T09:27:37.048Z,19.0
2017-08-20T09:28:38.448Z,18.7
2017-08-20T09:29:39.851Z,18.7
2017-08-20T09:30:41.257Z,18.9
2017-08-20T09:31:42.663Z,19.1
2017-08-20T09:32:45.794Z,19.1
2017-08-20T09:33:47.201Z,19.2
2017-08-20T09:34:48.620Z,19.4
2017-08-20T09:35:50.019Z,19.4
2017-08-20T09:36:51.423Z,19.3
2017-08-20T09:37:52.873Z,19.2
2017-08-20T09:38:54.229Z,19.2
2017-08-20T09:39:55.637Z,19.0
2017-08-20T09:40:57.043Z,18.7
2017-08-20T09:41:58.447Z,18.7
2017-08-20T09:43:02.356Z,18.9
2017-08-20T09:44:03.237Z,18.8
2017-08-20T09:45:04.640Z,18.7
2017-08-20T09:46:06.042Z,18.7
2017-08-20T09:47:07.452Z,18.6
2017-08-20T09:48:08.856Z,18.5
2017-08-20T09:49:10.258Z,18.5
2017-08-20T09:50:11.660Z,18.5
2017-08-20T09:51:13.067Z,18.3
2017-08-20T09:52:14.466Z,18.3
2017-08-20T09:53:15.879Z,18.4
2017-08-20T09:54:17.288Z,18.4
2017-08-20T09:55:19.293Z,18.3
2017-08-20T09:56:20.913Z,18.4
2017-08-20T09:57:22.931Z,18.4
2017-08-20T09:58:24.528Z,18.4
2017-08-20T09:59:25.930Z,18.4
2017-08-20T10:00:27.349Z,18.4
2017-08-20T10:01:28.758Z,18.4
2017-08-20T10:02:30.158Z,18.4
2017-08-20T10:03:31.561Z,18.3
2017-08-20T10:04:32.962Z,18.4
2017-08-20T10:05:34.365Z,18.4
2017-08-20T10:06:35.767Z,18.5
2017-08-20T10:07:37.171Z,18.6
2017-08-20T10:08:38.575Z,18.6
2017-08-20T10:09:39.979Z,18.7
2017-08-20T10:10:41.381Z,19.0
2017-08-20T10:11:42.785Z,18.9
2017-08-20T10:12:44.187Z,19.0
2017-08-20T10:13:45.595Z,19.1
2017-08-20T10:14:47.037Z,19.2
2017-08-20T10:15:48.864Z,19.3
2017-08-20T10:16:50.711Z,19.4
2017-08-20T10:17:52.098Z,19.4
2017-08-20T10:18:53.502Z,19.9
2017-08-20T10:19:54.905Z,20.2
2017-08-20T10:20:56.306Z,20.1
2017-08-20T10:21:57.720Z,19.9
2017-08-20T10:22:59.245Z,20.0
2017-08-20T10:24:00.652Z,20.0
2017-08-20T10:25:02.055Z,20.0
2017-08-20T10:26:03.460Z,20.0
2017-08-20T10:27:04.943Z,20.0
2017-08-20T10:28:06.330Z,19.9
2017-08-20T10:29:07.753Z,19.7
2017-08-20T10:30:09.146Z,19.5
2017-08-20T10:31:10.551Z,19.4
2017-08-20T10:32:11.951Z,19.3
2017-08-20T10:33:13.355Z,19.3
2017-08-20T10:34:14.758Z,19.3
2017-08-20T10:35:16.161Z,19.3
2017-08-20T10:36:17.566Z,19.1
2017-08-20T10:37:19.414Z,19.1
2017-08-20T10:38:21.661Z,19.1
2017-08-20T10:39:23.059Z,19.2
2017-08-20T10:40:24.463Z,19.3
2017-08-20T10:41:25.864Z,19.1
2017-08-20T10:42:27.270Z,19.2
2017-08-20T10:43:28.676Z,19.3
2017-08-20T10:44:30.082Z,19.3
2017-08-20T10:45:31.491Z,19.3
2017-08-20T10:46:32.887Z,19.1
2017-08-20T10:47:34.289Z,19.0
2017-08-20T10:48:35.692Z,18.9
2017-08-20T10:49:37.098Z,19.0
2017-08-20T10:50:38.502Z,19.2
2017-08-20T10:51:39.908Z,19.2
2017-08-20T10:52:41.314Z,19.1
2017-08-20T10:53:42.718Z,19.1
2017-08-20T10:54:44.173Z,19.2
2017-08-20T10:55:46.466Z,19.0
2017-08-20T10:56:47.915Z,19.1
2017-08-20T10:57:49.315Z,19.1
2017-08-20T10:58:50.722Z,19.1
2017-08-20T10:59:52.323Z,19.2
2017-08-20T11:00:53.932Z,19.2
2017-08-20T11:01:55.333Z,19.2
2017-08-20T11:02:56.738Z,19.1
2017-08-20T11:03:58.141Z,19.3
2017-08-20T11:04:59.560Z,19.5
2017-08-20T11:06:00.966Z,19.2
2017-08-20T11:07:02.369Z,19.2
2017-08-20T11:08:05.469Z,19.1
2017-08-20T11:09:08.172Z,19.3
2017-08-20T11:10:09.585Z,19.3
2017-08-20T11:11:11.238Z,19.4
2017-08-20T11:12:12.654Z,19.5
2017-08-20T11:13:14.061Z,19.6
2017-08-20T11:14:16.196Z,19.6
2017-08-20T11:15:18.540Z,20.0
2017-08-20T11:16:20.561Z,20.3
2017-08-20T11:17:22.420Z,20.3
2017-08-20T11:18:23.825Z,20.4
2017-08-20T11:19:25.228Z,20.5
2017-08-20T11:20:27.534Z,20.6
2017-08-20T11:21:28.941Z,20.8
2017-08-20T11:22:30.828Z,20.9
2017-08-20T11:23:32.691Z,20.6
2017-08-20T11:24:34.082Z,20.7
2017-08-20T11:25:35.489Z,20.8
2017-08-20T11:26:37.011Z,21.0
2017-08-20T11:27:38.440Z,21.4
2017-08-20T11:28:40.250Z,21.4
2017-08-20T11:29:41.932Z,21.3
2017-08-20T11:30:44.822Z,21.2
2017-08-20T11:31:46.268Z,21.5
2017-08-20T11:32:47.670Z,21.7
2017-08-20T11:33:49.959Z,21.6
2017-08-20T11:34:51.974Z,21.5
2017-08-20T11:35:53.702Z,21.5
2017-08-20T11:36:55.169Z,21.7
2017-08-20T11:37:56.576Z,21.5
2017-08-20T11:38:58.423Z,21.3
2017-08-20T11:40:00.409Z,21.0
2017-08-20T11:41:01.919Z,21.0
2017-08-20T11:42:03.330Z,20.9
2017-08-20T11:43:06.185Z,20.6
2017-08-20T11:44:07.592Z,20.4
2017-08-20T11:45:08.995Z,20.1
2017-08-20T11:46:10.401Z,20.0
2017-08-20T11:47:11.806Z,20.0
2017-08-20T11:48:14.281Z,19.9
2017-08-20T11:49:16.991Z,20.0
2017-08-20T11:50:19.062Z,20.1
2017-08-20T11:51:21.133Z,20.1
2017-08-20T11:52:22.539Z,20.0
2017-08-20T11:53:24.676Z,20.2
2017-08-20T11:54:26.168Z,20.2
2017-08-20T11:55:27.539Z,20.2
2017-08-20T11:56:29.592Z,20.3
2017-08-20T11:57:31.417Z,20.5
2017-08-20T11:58:32.826Z,20.7
2017-08-20T11:59:35.619Z,20.7
2017-08-20T12:00:38.126Z,20.9
2017-08-20T12:01:40.040Z,21.0
2017-08-20T12:02:41.394Z,20.9
2017-08-20T12:03:42.801Z,20.9
2017-08-20T12:04:44.780Z,21.1
2017-08-20T12:05:46.296Z,21.0
2017-08-20T12:06:47.737Z,21.0
2017-08-20T12:07:49.519Z,20.9
2017-08-20T12:08:50.924Z,20.9
2017-08-20T12:09:52.762Z,20.8
2017-08-20T12:10:55.093Z,20.7
2017-08-20T12:11:57.250Z,20.7
2017-08-20T12:12:59.072Z,20.6
2017-08-20T12:14:01.539Z,20.6
2017-08-20T12:15:03.524Z,20.4
2017-08-20T12:16:05.105Z,20.1
2017-08-20T12:17:06.631Z,19.9
2017-08-20T12:18:08.066Z,19.8
2017-08-20T12:19:09.471Z,19.6
2017-08-20T12:20:11.398Z,19.6
2017-08-20T12:21:13.649Z,19.5
2017-08-20T12:22:15.048Z,19.3
2017-08-20T12:23:16.413Z,19.3
2017-08-20T12:24:17.929Z,19.3
2017-08-20T12:25:19.333Z,19.2
2017-08-20T12:26:20.739Z,19.1
2017-08-20T12:27:22.139Z,19.1
2017-08-20T12:28:23.686Z,19.2
2017-08-20T12:29:25.090Z,19.2
2017-08-20T12:30:26.492Z,19.1
2017-08-20T12:31:27.901Z,19.2
2017-08-20T12:32:29.304Z,19.1
2017-08-20T12:33:30.708Z,19.1
2017-08-20T12:34:32.112Z,19.1
2017-08-20T12:35:33.512Z,19.1
2017-08-20T12:36:34.918Z,19.2
2017-08-20T12:37:36.562Z,19.1
2017-08-20T12:38:37.953Z,19.1
2017-08-20T12:39:40.228Z,19.0
2017-08-20T12:40:41.631Z,19.0
2017-08-20T12:41:43.176Z,19.1
2017-08-20T12:42:44.581Z,19.1
2017-08-20T12:43:45.987Z,19.2
2017-08-20T12:44:48.023Z,19.2
2017-08-20T12:45:49.625Z,19.2
2017-08-20T12:46:51.030Z,19.4
2017-08-20T12:47:52.436Z,19.4
2017-08-20T12:48:55.201Z,19.4
2017-08-20T12:49:57.163Z,19.3
2017-08-20T12:50:58.561Z,19.4
2017-08-20T12:51:59.965Z,19.5
2017-08-20T12:53:01.482Z,19.6
2017-08-20T12:54:03.191Z,19.9
2017-08-20T12:55:04.677Z,20.3
2017-08-20T12:56:06.779Z,20.2
2017-08-20T12:57:08.999Z,20.3
2017-08-20T12:58:10.931Z,20.3
2017-08-20T12:59:12.459Z,20.4
2017-08-20T13:00:13.749Z,20.6
2017-08-20T13:01:15.156Z,20.7
2017-08-20T13:02:17.098Z,21.1
2017-08-20T13:03:19.329Z,21.3
2017-08-20T13:04:21.720Z,21.6
2017-08-20T13:05:23.426Z,21.9
2017-08-20T13:06:24.831Z,22.4
2017-08-20T13:07:26.324Z,22.7
2017-08-20T13:08:27.732Z,22.4
2017-08-20T13:09:29.142Z,22.5
2017-08-20T13:10:30.943Z,22.9
2017-08-20T13:11:32.504Z,22.8
2017-08-20T13:12:33.865Z,22.7
2017-08-20T13:13:36.459Z,22.4
2017-08-20T13:14:38.450Z,22.4
2017-08-20T13:15:39.857Z,22.5
2017-08-20T13:16:42.184Z,22.8
2017-08-20T13:17:44.572Z,23.1
2017-08-20T13:18:45.979Z,23.0
2017-08-20T13:19:47.495Z,23.0
2017-08-20T13:20:49.511Z,23.3
2017-08-20T13:21:50.920Z,23.5
2017-08-20T13:22:52.329Z,23.7
2017-08-20T13:23:55.123Z,23.8
2017-08-20T13:24:56.609Z,23.5
2017-08-20T13:25:58.086Z,23.4
2017-08-20T13:27:00.023Z,23.3
2017-08-20T13:28:02.281Z,22.9
2017-08-20T13:29:03.837Z,22.6
2017-08-20T13:30:05.700Z,22.6
2017-08-20T13:31:08.289Z,22.5
2017-08-20T13:32:10.007Z,22.7
2017-08-20T13:33:11.410Z,23.1
2017-08-20T13:34:12.881Z,23.0
2017-08-20T13:35:14.281Z,22.7
2017-08-20T13:36:15.688Z,22.7
2017-08-20T13:37:17.222Z,22.5
2017-08-20T13:38:19.192Z,22.4